Time;durP1;ratioP1;P1;durP2;ratioP2;P2;SDS_P1;SDS_P2;PMS_P1;PMS_P2;Temp;Humidity;BMP_temperature;BMP_pressure;BME280_temperature;BME280_humidity;BME280_pressure;Samples;Min_cycle;Max_cycle;Signal;HPM_P1;HPM_P2
2023/03/13 00:01:25;;;;;;;22.42;4.75;;;7.90;99.90;;;;;;4849515;29;20056;-86
2023/03/13 00:03:51;;;;;;;20.73;5.03;;;6.50;99.90;;;;;;4849179;29;20061;-84
2023/03/13 00:06:18;;;;;;;16.42;5.15;;;7.80;99.90;;;;;;4863910;29;20061;-85
2023/03/13 00:08:44;;;;;;;19.27;4.75;;;7.80;99.90;;;;;;4858438;29;20056;-85
2023/03/13 00:11:12;;;;;;;24.10;5.75;;;7.80;99.90;;;;;;4865671;29;20064;-87
2023/03/13 00:13:38;;;;;;;25.40;5.65;;;7.80;99.90;;;;;;4870980;29;20407;-85
2023/03/13 00:16:07;;;;;;;20.08;4.60;;;7.80;99.90;;;;;;4841250;29;20053;-85
2023/03/13 00:18:33;;;;;;;22.33;5.50;;;7.80;99.90;;;;;;4847714;29;20060;-85
2023/03/13 00:21:01;;;;;;;23.08;5.05;;;7.80;99.90;;;;;;4841303;29;20109;-85
2023/03/13 00:23:28;;;;;;;22.70;5.45;;;7.20;99.90;;;;;;4847311;29;20075;-85
2023/03/13 00:26:06;;;;;;;21.20;5.15;;;7.80;99.90;;;;;;4851840;29;20045;-84
2023/03/13 00:28:33;;;;;;;22.58;4.85;;;7.80;99.90;;;;;;4849012;29;20124;-86
2023/03/13 00:31:10;;;;;;;21.70;4.93;;;7.80;99.90;;;;;;4835123;29;20109;-85
2023/03/13 00:33:38;;;;;;;27.67;5.50;;;7.80;99.90;;;;;;4855123;29;20053;-86
2023/03/13 00:36:07;;;;;;;19.10;5.25;;;7.80;99.90;;;;;;4861126;29;20054;-84
2023/03/13 00:38:34;;;;;;;24.00;4.95;;;7.80;99.90;;;;;;4854542;29;20053;-86
2023/03/13 00:41:04;;;;;;;26.33;6.22;;;7.70;99.90;;;;;;4860751;29;20055;-86
2023/03/13 00:43:31;;;;;;;18.40;5.03;;;7.80;99.90;;;;;;4852712;29;20091;-84
2023/03/13 00:45:57;;;;;;;26.48;4.82;;;7.90;99.90;;;;;;4841828;29;20084;-85
2023/03/13 00:48:23;;;;;;;24.33;5.53;;;6.80;99.90;;;;;;4873719;29;20084;-86
2023/03/13 00:50:49;;;;;;;26.40;6.35;;;7.80;99.90;;;;;;4861924;29;20052;-86
2023/03/13 00:53:15;;;;;;;23.60;5.55;;;6.80;99.90;;;;;;4846458;29;20474;-86
2023/03/13 00:55:58;;;;;;;24.85;6.35;;;7.90;99.90;;;;;;4852201;29;20050;-85
2023/03/13 00:58:26;;;;;;;25.80;6.15;;;7.80;99.90;;;;;;4852572;29;20133;-85
2023/03/13 01:00:53;;;;;;;24.70;6.32;;;7.80;99.90;;;;;;4853588;29;20521;-86
2023/03/13 01:03:20;;;;;;;21.35;5.95;;;7.80;99.90;;;;;;4854728;29;20123;-86
2023/03/13 01:05:58;;;;;;;24.60;6.18;;;6.60;99.90;;;;;;4863356;29;20080;-85
2023/03/13 01:08:24;;;;;;;28.05;5.95;;;7.80;99.90;;;;;;4839989;29;20060;-85
2023/03/13 01:10:50;;;;;;;29.70;6.47;;;7.90;99.90;;;;;;4835819;29;20790;-84
2023/03/13 01:13:15;;;;;;;19.95;6.13;;;7.80;99.90;;;;;;4844445;29;20121;-85
2023/03/13 01:15:41;;;;;;;20.00;5.50;;;7.90;99.90;;;;;;4849341;29;20096;-85
2023/03/13 01:18:07;;;;;;;25.35;6.97;;;7.90;99.90;;;;;;4838853;29;20136;-84
2023/03/13 01:20:33;;;;;;;35.70;7.97;;;7.80;99.90;;;;;;4861090;29;20053;-84
2023/03/13 01:22:59;;;;;;;25.52;6.68;;;8.00;99.90;;;;;;4839954;29;20056;-84
2023/03/13 01:25:25;;;;;;;27.63;7.32;;;7.80;99.90;;;;;;4846570;29;20508;-85
2023/03/13 01:27:51;;;;;;;25.95;6.57;;;7.80;99.90;;;;;;4840111;29;20053;-84
2023/03/13 01:30:17;;;;;;;25.80;6.97;;;7.80;99.90;;;;;;4848787;29;20208;-84
2023/03/13 01:32:42;;;;;;;28.52;7.07;;;8.00;99.90;;;;;;4854495;29;20046;-85
2023/03/13 01:35:08;;;;;;;23.08;6.85;;;7.90;99.90;;;;;;4823950;29;20053;-85
2023/03/13 01:37:34;;;;;;;19.65;7.03;;;7.80;99.90;;;;;;4834250;29;20051;-86
2023/03/13 01:40:01;;;;;;;25.10;7.18;;;8.20;99.90;;;;;;4834315;29;20485;-85
2023/03/13 01:42:27;;;;;;;20.17;6.03;;;7.80;99.90;;;;;;4838045;29;20053;-87
2023/03/13 01:44:55;;;;;;;20.83;5.57;;;7.00;99.90;;;;;;4847904;29;20051;-85
2023/03/13 01:47:22;;;;;;;22.27;6.95;;;8.50;99.90;;;;;;4848384;29;20608;-85
2023/03/13 01:49:51;;;;;;;24.55;6.90;;;7.30;99.90;;;;;;4854695;29;20435;-86
2023/03/13 01:52:24;;;;;;;13.65;6.20;;;7.90;99.90;;;;;;4852858;29;20064;-86
2023/03/13 01:55:04;;;;;;;14.00;6.25;;;8.00;99.90;;;;;;4861908;29;20045;-85
2023/03/13 01:57:36;;;;;;;19.85;6.97;;;8.00;99.90;;;;;;4850459;29;20053;-86
2023/03/13 02:00:15;;;;;;;18.17;6.60;;;8.00;99.90;;;;;;4853331;29;20045;-85
2023/03/13 02:02:45;;;;;;;19.73;7.32;;;8.10;99.90;;;;;;4845700;29;20053;-85
2023/03/13 02:05:13;;;;;;;17.15;7.00;;;8.10;99.90;;;;;;4860050;29;20057;-86
2023/03/13 02:07:46;;;;;;;19.90;7.25;;;9.20;99.90;;;;;;4853220;29;20057;-86
2023/03/13 02:10:15;;;;;;;13.27;7.45;;;8.20;99.90;;;;;;4863805;29;20105;-85
2023/03/13 02:12:41;;;;;;;14.60;6.80;;;8.20;99.90;;;;;;4861836;29;20068;-86
2023/03/13 02:15:17;;;;;;;20.02;7.78;;;8.20;99.90;;;;;;4852956;29;20053;-85
2023/03/13 02:17:45;;;;;;;17.58;7.22;;;8.20;99.90;;;;;;4850114;29;20110;-86
2023/03/13 02:20:13;;;;;;;14.70;6.90;;;8.20;99.90;;;;;;4862938;29;20713;-86
2023/03/13 02:22:52;;;;;;;15.50;6.95;;;6.70;99.90;;;;;;4854161;29;20132;-85
2023/03/13 02:25:26;;;;;;;18.27;7.40;;;9.40;99.90;;;;;;4851945;29;20080;-86
2023/03/13 02:27:57;;;;;;;15.15;6.53;;;8.20;99.90;;;;;;4855747;29;20053;-85
2023/03/13 02:30:23;;;;;;;13.55;7.18;;;8.10;99.90;;;;;;4852646;29;20105;-87
2023/03/13 02:32:50;;;;;;;13.95;7.40;;;8.10;99.90;;;;;;4852353;29;20045;-86
2023/03/13 02:35:19;;;;;;;16.15;7.60;;;7.40;99.90;;;;;;4852953;29;20057;-86
2023/03/13 02:37:58;;;;;;;13.50;7.30;;;8.20;99.90;;;;;;4856445;29;20084;-85
2023/03/13 02:40:31;;;;;;;14.07;7.13;;;8.20;99.90;;;;;;4866231;29;20091;-86
2023/03/13 02:43:01;;;;;;;13.10;6.97;;;8.30;99.90;;;;;;4857948;29;20057;-87
2023/03/13 02:45:30;;;;;;;17.63;7.57;;;8.30;99.90;;;;;;4865883;29;20078;-86
2023/03/13 02:47:55;;;;;;;11.95;7.05;;;8.20;99.90;;;;;;4867714;29;20057;-87
2023/03/13 02:50:23;;;;;;;12.45;7.15;;;8.20;99.90;;;;;;4846239;29;20045;-86
2023/03/13 02:53:02;;;;;;;13.63;7.30;;;8.40;99.90;;;;;;4858871;29;20069;-85
2023/03/13 02:55:39;;;;;;;16.20;7.88;;;8.30;99.90;;;;;;4868428;29;20037;-85
2023/03/13 02:58:05;;;;;;;12.30;7.28;;;8.20;99.90;;;;;;4877118;29;20037;-84
2023/03/13 03:00:31;;;;;;;11.52;6.95;;;8.30;99.90;;;;;;4890019;29;20181;-85
2023/03/13 03:02:57;;;;;;;11.88;7.35;;;8.30;99.90;;;;;;4865958;29;20049;-85
2023/03/13 03:05:23;;;;;;;10.10;6.97;;;7.30;99.90;;;;;;4882768;29;20113;-85
2023/03/13 03:07:49;;;;;;;9.65;6.47;;;7.80;99.90;;;;;;4889990;29;20056;-86
2023/03/13 03:10:16;;;;;;;9.82;6.90;;;8.30;99.90;;;;;;4887287;29;20069;-85
2023/03/13 03:12:42;;;;;;;10.35;6.95;;;8.60;99.90;;;;;;4879470;29;20078;-86
2023/03/13 03:15:09;;;;;;;8.63;6.38;;;8.40;99.90;;;;;;4870065;29;20133;-86
2023/03/13 03:17:36;;;;;;;10.48;6.72;;;8.40;99.90;;;;;;4863322;29;20109;-86
2023/03/13 03:20:06;;;;;;;8.55;5.50;;;8.40;99.90;;;;;;4864363;29;20065;-87
2023/03/13 03:22:33;;;;;;;7.43;5.63;;;8.40;99.90;;;;;;4856985;29;20410;-87
2023/03/13 03:24:59;;;;;;;12.35;6.70;;;8.40;99.90;;;;;;4840782;29;20049;-87
2023/03/13 03:27:25;;;;;;;11.52;6.55;;;8.60;99.90;;;;;;4832921;29;20072;-86
2023/03/13 03:29:50;;;;;;;13.25;7.05;;;8.50;99.90;;;;;;4850631;29;20049;-86
2023/03/13 03:32:16;;;;;;;10.55;7.03;;;8.60;99.90;;;;;;4855462;29;20120;-87
2023/03/13 03:34:42;;;;;;;10.15;6.80;;;8.60;99.90;;;;;;4842672;29;20057;-87
2023/03/13 03:37:08;;;;;;;14.13;7.85;;;7.10;99.90;;;;;;4827934;29;20053;-87
2023/03/13 03:39:35;;;;;;;11.60;7.30;;;8.70;99.90;;;;;;4854718;29;20136;-86
2023/03/13 03:42:01;;;;;;;15.32;8.15;;;8.70;99.90;;;;;;4858589;29;20128;-86
2023/03/13 03:44:27;;;;;;;13.52;7.90;;;8.80;99.90;;;;;;4850054;29;20514;-88
2023/03/13 03:46:52;;;;;;;12.02;6.97;;;8.80;99.90;;;;;;4850901;29;20054;-87
2023/03/13 03:49:18;;;;;;;19.67;7.72;;;8.80;99.90;;;;;;4826523;29;20092;-87
2023/03/13 03:51:45;;;;;;;20.77;7.65;;;8.90;99.90;;;;;;4848769;29;20107;-87
2023/03/13 03:54:11;;;;;;;18.25;7.03;;;9.00;99.90;;;;;;4825016;29;20865;-86
2023/03/13 03:56:37;;;;;;;19.85;7.80;;;9.00;99.90;;;;;;4836404;29;20125;-85
2023/03/13 03:59:03;;;;;;;21.65;7.40;;;9.10;99.90;;;;;;4856604;29;20060;-87
2023/03/13 04:01:29;;;;;;;22.13;8.30;;;8.20;99.90;;;;;;4851215;29;20045;-88
2023/03/13 04:03:55;;;;;;;19.65;6.60;;;7.70;99.90;;;;;;4839998;29;20049;-85
2023/03/13 04:06:21;;;;;;;25.65;7.63;;;9.10;99.90;;;;;;4841820;29;20105;-88
2023/03/13 04:08:47;;;;;;;22.98;6.30;;;9.10;99.90;;;;;;4842073;29;20122;-85
2023/03/13 04:11:13;;;;;;;21.27;6.88;;;9.00;99.90;;;;;;4834580;29;20570;-85
2023/03/13 04:13:39;;;;;;;27.77;7.40;;;9.10;99.90;;;;;;4851177;29;20045;-86
2023/03/13 04:16:09;;;;;;;27.63;6.78;;;9.20;99.90;;;;;;4826281;29;20117;-88
2023/03/13 04:18:34;;;;;;;35.58;7.40;;;9.20;99.90;;;;;;4864714;29;20088;-87
2023/03/13 04:21:02;;;;;;;30.08;7.38;;;9.20;99.90;;;;;;4851472;29;20447;-85
2023/03/13 04:23:28;;;;;;;32.97;6.78;;;9.20;99.90;;;;;;4853487;29;20057;-88
2023/03/13 04:25:54;;;;;;;27.38;7.68;;;9.30;99.90;;;;;;4847412;29;20056;-88
2023/03/13 04:28:20;;;;;;;27.75;6.75;;;9.20;99.90;;;;;;4851727;29;20057;-87
2023/03/13 04:30:46;;;;;;;25.02;6.55;;;9.20;99.90;;;;;;4856604;29;20133;-87
2023/03/13 04:33:14;;;;;;;28.10;7.10;;;10.40;99.90;;;;;;4835561;29;20131;-87
2023/03/13 04:35:40;;;;;;;28.77;6.72;;;9.30;99.90;;;;;;4849032;29;20109;-88
2023/03/13 04:38:05;;;;;;;24.17;6.35;;;8.60;99.90;;;;;;4857259;29;20136;-87
2023/03/13 04:40:31;;;;;;;26.92;6.60;;;9.40;99.90;;;;;;4855762;29;20073;-88
2023/03/13 04:42:57;;;;;;;28.33;6.53;;;9.30;99.90;;;;;;4862821;29;20053;-85
2023/03/13 04:45:29;;;;;;;20.63;5.90;;;9.50;99.90;;;;;;4855761;29;20068;-86
2023/03/13 04:47:55;;;;;;;18.50;5.45;;;11.30;99.90;;;;;;4853280;29;20053;-89
2023/03/13 04:50:21;;;;;;;19.17;6.18;;;9.40;99.90;;;;;;4849636;29;20045;-87
2023/03/13 04:52:47;;;;;;;28.73;8.05;;;9.60;99.90;;;;;;4833156;29;20077;-87
2023/03/13 04:55:13;;;;;;;26.90;6.38;;;9.40;99.90;;;;;;4837054;29;20045;-88
2023/03/13 04:57:39;;;;;;;24.02;6.60;;;9.50;99.90;;;;;;4836255;29;20132;-87
2023/03/13 05:00:07;;;;;;;25.85;6.55;;;9.40;99.90;;;;;;4824742;29;20511;-86
2023/03/13 05:02:33;;;;;;;23.15;6.90;;;8.10;99.90;;;;;;4863265;29;20064;-87
2023/03/13 05:04:59;;;;;;;18.85;6.03;;;9.60;99.90;;;;;;4839816;29;20052;-87
2023/03/13 05:07:24;;;;;;;28.13;6.38;;;9.40;99.90;;;;;;4840522;29;20057;-86
2023/03/13 05:09:50;;;;;;;27.75;6.18;;;9.50;99.90;;;;;;4847243;29;20060;-85
2023/03/13 05:12:19;;;;;;;27.77;6.45;;;9.40;99.90;;;;;;4870195;29;20394;-86
2023/03/13 05:14:45;;;;;;;23.48;6.13;;;9.70;99.90;;;;;;4839799;29;20045;-86
2023/03/13 05:17:11;;;;;;;21.83;6.00;;;9.40;99.90;;;;;;4860826;29;20553;-86
2023/03/13 05:19:37;;;;;;;20.13;5.70;;;9.50;99.90;;;;;;4825579;29;20498;-86
2023/03/13 05:22:03;;;;;;;21.98;6.07;;;9.70;99.90;;;;;;4852327;29;20053;-86
2023/03/13 05:24:29;;;;;;;25.90;6.22;;;8.00;99.90;;;;;;4816503;29;20061;-86
2023/03/13 05:26:55;;;;;;;23.15;6.72;;;9.50;99.90;;;;;;4848094;29;20096;-87
2023/03/13 05:29:20;;;;;;;27.23;6.03;;;9.60;99.90;;;;;;4852568;29;20201;-85
2023/03/13 05:31:46;;;;;;;20.90;6.45;;;9.50;99.90;;;;;;4847929;29;20131;-86
2023/03/13 05:34:13;;;;;;;30.25;7.47;;;9.50;99.90;;;;;;4854685;29;20057;-87
2023/03/13 05:36:39;;;;;;;30.92;6.55;;;9.60;99.90;;;;;;4837339;29;20612;-86
2023/03/13 05:39:05;;;;;;;26.17;7.13;;;9.60;99.90;;;;;;4854396;29;20131;-86
2023/03/13 05:41:34;;;;;;;23.27;6.32;;;9.60;99.90;;;;;;4861573;29;20052;-86
2023/03/13 05:44:00;;;;;;;27.77;7.03;;;9.50;99.90;;;;;;4850149;29;20064;-86
2023/03/13 05:46:26;;;;;;;30.50;7.38;;;9.50;99.90;;;;;;4853696;29;20085;-86
2023/03/13 05:48:52;;;;;;;25.05;6.40;;;9.60;99.90;;;;;;4838144;29;20132;-86
2023/03/13 05:51:18;;;;;;;21.92;7.03;;;9.90;99.90;;;;;;4848631;29;20121;-86
2023/03/13 05:53:44;;;;;;;24.45;6.47;;;9.60;99.90;;;;;;4839903;29;20069;-86
2023/03/13 05:56:10;;;;;;;29.27;6.82;;;9.00;99.90;;;;;;4847588;29;20064;-85
2023/03/13 05:58:36;;;;;;;33.55;6.43;;;9.60;99.90;;;;;;4850665;29;20053;-86
2023/03/13 06:01:12;;;;;;;30.63;6.47;;;9.60;99.90;;;;;;4866084;29;20128;-86
2023/03/13 06:03:38;;;;;;;33.45;6.47;;;9.70;99.90;;;;;;4860345;29;20053;-87
2023/03/13 06:06:04;;;;;;;22.13;6.13;;;9.70;99.90;;;;;;4833355;29;20049;-86
2023/03/13 06:08:31;;;;;;;26.75;4.90;;;9.60;99.90;;;;;;4851296;29;20607;-86
2023/03/13 06:11:01;;;;;;;29.15;6.60;;;8.50;99.90;;;;;;4851018;29;20057;-87
2023/03/13 06:13:28;;;;;;;24.40;6.03;;;9.80;99.90;;;;;;4848256;29;20057;-88
2023/03/13 06:15:56;;;;;;;24.05;5.07;;;11.60;99.90;;;;;;4854625;29;20045;-88
2023/03/13 06:18:23;;;;;;;26.05;6.03;;;9.70;99.90;;;;;;4833546;29;20052;-87
2023/03/13 06:20:54;;;;;;;21.48;5.53;;;10.00;99.90;;;;;;4861983;29;20060;-85
2023/03/13 06:23:20;;;;;;;25.20;5.75;;;10.00;99.90;;;;;;4851448;29;20063;-86
2023/03/13 06:25:47;;;;;;;26.75;6.85;;;9.90;99.90;;;;;;4863658;29;20475;-85
2023/03/13 06:28:13;;;;;;;23.10;6.72;;;10.00;99.90;;;;;;4855287;29;20573;-85
2023/03/13 06:30:38;;;;;;;23.60;5.72;;;10.00;99.90;;;;;;4860341;29;20105;-86
2023/03/13 06:33:04;;;;;;;26.27;6.00;;;10.10;99.90;;;;;;4840844;29;20045;-89
2023/03/13 06:35:33;;;;;;;22.75;5.00;;;10.10;99.90;;;;;;4875638;29;20045;-90
2023/03/13 06:37:59;;;;;;;19.98;5.40;;;10.00;99.90;;;;;;4847831;29;20041;-90
2023/03/13 06:40:25;;;;;;;23.13;6.03;;;10.30;99.90;;;;;;4861519;29;20060;-91
2023/03/13 06:42:54;;;;;;;23.85;5.75;;;10.10;99.90;;;;;;4861972;29;20144;-91
2023/03/13 06:45:20;;;;;;;24.85;5.75;;;10.20;99.90;;;;;;4863746;29;20053;-91
2023/03/13 06:47:45;;;;;;;22.92;5.85;;;10.10;99.90;;;;;;4857654;29;20117;-90
2023/03/13 06:50:14;;;;;;;26.67;6.18;;;10.20;99.90;;;;;;4862528;29;20057;-89
2023/03/13 06:52:40;;;;;;;26.95;5.65;;;10.10;99.90;;;;;;4858358;29;20077;-91
2023/03/13 06:55:07;;;;;;;23.20;5.63;;;10.10;99.90;;;;;;4863072;29;20084;-86
2023/03/13 06:57:33;;;;;;;25.50;5.80;;;10.10;99.90;;;;;;4843082;29;20053;-90
2023/03/13 06:59:59;;;;;;;21.50;5.18;;;10.10;99.90;;;;;;4848882;29;20393;-88
2023/03/13 07:02:28;;;;;;;37.63;5.70;;;11.40;99.90;;;;;;4870664;29;20100;-88
2023/03/13 07:04:56;;;;;;;20.02;5.40;;;10.00;99.90;;;;;;4833086;29;20097;-92
2023/03/13 07:07:22;;;;;;;32.88;5.82;;;;;;;;;;4858186;29;20497;-89
2023/03/13 07:09:48;;;;;;;22.48;4.68;;;10.00;99.90;;;;;;4860963;29;20057;-85
2023/03/13 07:12:14;;;;;;;21.17;5.40;;;10.00;99.90;;;;;;4853073;29;20062;-86
2023/03/13 07:14:40;;;;;;;22.70;5.07;;;10.00;99.90;;;;;;4828743;29;20044;-86
2023/03/13 07:17:05;;;;;;;18.88;5.05;;;10.00;99.90;;;;;;4856788;29;20059;-85
2023/03/13 07:19:31;;;;;;;23.60;4.97;;;10.10;99.90;;;;;;4860697;29;20554;-84
2023/03/13 07:21:57;;;;;;;26.25;5.63;;;8.90;99.90;;;;;;4856842;29;20054;-86
2023/03/13 07:24:23;;;;;;;17.58;5.20;;;10.00;99.90;;;;;;4827735;29;20623;-86
2023/03/13 07:26:49;;;;;;;21.30;5.55;;;10.10;99.90;;;;;;4869740;29;20061;-84
2023/03/13 07:29:15;;;;;;;28.58;5.45;;;10.10;99.90;;;;;;4872644;29;20048;-85
2023/03/13 07:31:40;;;;;;;23.00;5.15;;;10.10;99.90;;;;;;4833041;29;20068;-84
2023/03/13 07:34:06;;;;;;;26.25;5.63;;;10.20;99.90;;;;;;4853741;29;20057;-84
2023/03/13 07:36:34;;;;;;;29.05;5.85;;;10.10;99.90;;;;;;4860482;29;20053;-88
2023/03/13 07:39:00;;;;;;;22.92;6.00;;;10.10;99.90;;;;;;4854287;29;20063;-82
2023/03/13 07:41:26;;;;;;;26.73;5.47;;;10.10;99.90;;;;;;4853837;29;20128;-87
2023/03/13 07:43:52;;;;;;;21.35;5.55;;;10.10;99.90;;;;;;4846053;29;20506;-86
2023/03/13 07:46:20;;;;;;;22.35;5.43;;;10.10;99.90;;;;;;4871014;29;20049;-86
2023/03/13 07:48:47;;;;;;;22.00;5.13;;;10.20;99.90;;;;;;4880524;29;20105;-86
2023/03/13 07:51:19;;;;;;;18.98;5.03;;;10.20;99.90;;;;;;4882161;29;20096;-85
2023/03/13 07:53:49;;;;;;;22.75;5.15;;;10.10;99.90;;;;;;4877993;29;20045;-85
2023/03/13 07:56:18;;;;;;;22.02;5.93;;;10.20;99.90;;;;;;4872706;29;20109;-86
2023/03/13 07:58:45;;;;;;;16.33;4.68;;;10.00;99.90;;;;;;4890735;29;20040;-85
2023/03/13 08:01:16;;;;;;;17.88;4.13;;;10.30;99.90;;;;;;4879230;29;20056;-86
2023/03/13 08:03:43;;;;;;;20.38;4.72;;;9.20;99.90;;;;;;4880314;29;20206;-86
2023/03/13 08:18:26;;;;;;;17.33;4.72;;;10.40;99.90;;;;;;5041221;24;20502;-84
2023/03/13 08:20:52;;;;;;;15.60;4.40;;;10.50;99.90;;;;;;4866765;29;20057;-84
2023/03/13 08:23:18;;;;;;;17.30;4.07;;;10.60;99.90;;;;;;4841210;29;20188;-85
2023/03/13 08:25:44;;;;;;;17.98;4.75;;;10.70;99.90;;;;;;4851172;29;20057;-85
2023/03/13 08:28:10;;;;;;;13.25;4.07;;;10.80;99.90;;;;;;4853338;29;20391;-85
2023/03/13 08:30:36;;;;;;;17.08;3.60;;;11.00;99.90;;;;;;4851898;29;20057;-85
2023/03/13 08:33:01;;;;;;;19.48;4.13;;;11.00;99.90;;;;;;4864698;29;20517;-84
2023/03/13 08:35:29;;;;;;;16.23;3.85;;;11.20;99.90;;;;;;4868909;29;20506;-85
2023/03/13 08:37:54;;;;;;;14.10;3.80;;;11.20;99.90;;;;;;4851441;29;20052;-84
2023/03/13 08:40:20;;;;;;;12.70;3.90;;;11.30;99.90;;;;;;4843483;29;20118;-86
2023/03/13 08:42:46;;;;;;;18.13;4.28;;;11.40;99.90;;;;;;4852770;29;20490;-85
2023/03/13 08:45:12;;;;;;;14.65;3.40;;;11.50;99.90;;;;;;4852292;29;20421;-84
2023/03/13 08:47:39;;;;;;;14.93;3.78;;;10.40;99.90;;;;;;4850566;29;20053;-84
2023/03/13 08:50:06;;;;;;;16.23;3.55;;;11.70;99.90;;;;;;4838322;29;20084;-84
2023/03/13 08:52:31;;;;;;;14.98;4.03;;;11.50;99.90;;;;;;4862754;29;20171;-85
2023/03/13 08:54:57;;;;;;;14.43;3.53;;;11.50;99.90;;;;;;4842107;29;20549;-84
2023/03/13 08:57:23;;;;;;;19.50;4.00;;;11.40;99.90;;;;;;4836571;29;20085;-85
2023/03/13 08:59:50;;;;;;;13.85;3.20;;;11.20;99.90;;;;;;4865162;29;20053;-85
2023/03/13 09:02:19;;;;;;;14.63;3.20;;;9.90;99.90;;;;;;4843650;29;20133;-84
2023/03/13 09:04:47;;;;;;;21.02;3.50;;;11.10;99.90;;;;;;4854659;29;20061;-85
2023/03/13 09:07:13;;;;;;;14.25;3.92;;;11.00;99.90;;;;;;4858618;29;20061;-85
2023/03/13 09:09:39;;;;;;;19.48;3.75;;;11.10;99.90;;;;;;4867315;29;20463;-84
2023/03/13 09:12:10;;;;;;;15.05;4.30;;;11.00;99.90;;;;;;4866910;29;20399;-85
2023/03/13 09:14:36;;;;;;;24.08;4.93;;;10.90;99.90;;;;;;4866306;29;20088;-83
2023/03/13 09:17:03;;;;;;;18.50;4.28;;;12.10;99.90;;;;;;4843676;29;20108;-84
2023/03/13 09:19:30;;;;;;;17.40;4.57;;;10.90;99.90;;;;;;4844800;29;20052;-84
2023/03/13 09:21:56;;;;;;;18.58;4.45;;;11.10;99.90;;;;;;4840867;29;20394;-85
2023/03/13 09:24:22;;;;;;;23.25;4.80;;;11.10;99.90;;;;;;4853163;29;20147;-85
2023/03/13 09:26:47;;;;;;;20.48;4.15;;;10.90;99.90;;;;;;4838334;29;20056;-85
2023/03/13 09:29:13;;;;;;;24.15;4.68;;;11.00;99.90;;;;;;4858914;29;20064;-84
2023/03/13 09:31:40;;;;;;;15.60;3.75;;;11.00;99.90;;;;;;4874333;29;20061;-85
2023/03/13 09:34:08;;;;;;;18.48;4.63;;;11.40;99.90;;;;;;4865851;29;20050;-86
2023/03/13 09:36:33;;;;;;;15.35;4.32;;;11.20;99.90;;;;;;4843573;29;20053;-85
2023/03/13 09:39:01;;;;;;;15.50;3.80;;;11.60;99.90;;;;;;4846317;29;20505;-85
2023/03/13 09:41:57;;;;;;;15.80;4.10;;;11.80;99.90;;;;;;4861996;29;20056;-85
2023/03/13 09:44:35;;;;;;;17.07;3.87;;;11.90;99.90;;;;;;4872606;29;20057;-86
2023/03/13 09:47:14;;;;;;;20.08;4.05;;;12.20;99.90;;;;;;4876581;29;20308;-86
2023/03/13 09:50:18;;;;;;;15.82;3.65;;;12.30;99.90;;;;;;4870552;29;20109;-88
2023/03/13 09:52:47;;;;;;;16.42;3.47;;;12.50;99.90;;;;;;4859838;29;20053;-89
2023/03/13 09:55:24;;;;;;;14.38;4.20;;;12.70;99.90;;;;;;4869155;29;20061;-89
2023/03/13 09:57:59;;;;;;;16.08;3.70;;;13.30;99.90;;;;;;4860489;29;20473;-90
2023/03/13 10:00:38;;;;;;;16.67;4.25;;;13.00;99.90;;;;;;4862281;29;20049;-88
2023/03/13 10:03:13;;;;;;;21.10;4.15;;;13.10;99.90;;;;;;4859633;29;20151;-86
2023/03/13 10:05:53;;;;;;;15.93;4.35;;;13.00;99.90;;;;;;4854853;29;20049;-86
2023/03/13 10:08:22;;;;;;;19.77;5.07;;;12.90;99.90;;;;;;4861622;29;20057;-87
2023/03/13 10:11:06;;;;;;;19.88;4.60;;;13.00;99.90;;;;;;4862372;29;20053;-88
2023/03/13 10:13:35;;;;;;;22.00;5.57;;;12.90;99.90;;;;;;4856344;29;20048;-88
2023/03/13 10:16:08;;;;;;;20.90;4.32;;;13.10;99.90;;;;;;4858821;29;20072;-87
2023/03/13 10:18:35;;;;;;;21.67;4.25;;;12.10;99.90;;;;;;4852763;29;20057;-89
2023/03/13 10:21:18;;;;;;;23.95;5.13;;;13.10;99.90;;;;;;4854814;29;20469;-88
2023/03/13 10:23:57;;;;;;;22.02;5.32;;;13.30;99.90;;;;;;4869696;29;20415;-88
2023/03/13 10:26:28;;;;;;;21.75;4.60;;;13.30;99.90;;;;;;4859444;29;20096;-89
2023/03/13 10:28:56;;;;;;;22.08;4.80;;;13.20;99.90;;;;;;4859064;29;20135;-88
2023/03/13 10:31:35;;;;;;;22.88;5.07;;;13.30;99.90;;;;;;4856450;29;20080;-85
2023/03/13 10:34:18;;;;;;;23.08;4.65;;;13.20;99.90;;;;;;4865659;29;20057;-90
2023/03/13 10:36:53;;;;;;;20.85;4.70;;;13.30;99.90;;;;;;4868470;29;20445;-90
2023/03/13 10:39:22;;;;;;;19.08;4.75;;;13.20;99.90;;;;;;4856970;29;20478;-89
2023/03/13 10:41:49;;;;;;;22.67;5.15;;;13.10;99.90;;;;;;4855571;29;20714;-89
2023/03/13 10:44:21;;;;;;;16.05;4.15;;;13.10;99.90;;;;;;4868028;29;20498;-88
2023/03/13 10:46:48;;;;;;;20.10;4.50;;;13.20;99.90;;;;;;4869503;29;20057;-86
2023/03/13 10:49:19;;;;;;;18.17;4.50;;;13.20;99.90;;;;;;4860663;29;20056;-84
2023/03/13 10:51:48;;;;;;;25.08;4.88;;;13.20;99.90;;;;;;4864435;29;20050;-86
2023/03/13 10:54:22;;;;;;;20.08;4.75;;;13.30;99.90;;;;;;4848201;29;20134;-84
2023/03/13 10:56:49;;;;;;;20.58;4.10;;;13.40;99.90;;;;;;4858054;29;20049;-86
2023/03/13 10:59:43;;;;;;;22.95;4.80;;;13.50;99.90;;;;;;4851724;29;20132;-88
2023/03/13 11:02:37;;;;;;;23.45;4.63;;;13.60;99.90;;;;;;4852931;29;20060;-87
2023/03/13 11:05:27;;;;;;;21.40;4.18;;;13.70;99.90;;;;;;4864142;29;20060;-88
2023/03/13 11:07:53;;;;;;;24.75;4.78;;;14.00;99.90;;;;;;4858761;29;20064;-88
2023/03/13 11:10:22;;;;;;;21.48;4.72;;;13.30;99.90;;;;;;4848496;29;20045;-91
2023/03/13 11:12:58;;;;;;;20.75;4.30;;;14.10;99.90;;;;;;4858611;29;20049;-90
2023/03/13 11:15:48;;;;;;;19.45;4.20;;;14.80;99.90;;;;;;4861202;29;20421;-89
2023/03/13 11:18:23;;;;;;;17.83;3.97;;;13.40;99.90;;;;;;4862972;29;20057;-91
2023/03/13 11:21:37;;;;;;;;;;;;;;;;;;;;;
2023/03/13 11:24:38;;;;;;;21.77;4.68;;;14.10;99.90;;;;;;4876059;29;20131;-91
2023/03/13 11:30:32;;;;;;;20.83;4.38;;;13.30;99.90;;;;;;4874998;29;20134;-90
2023/03/13 11:33:11;;;;;;;24.50;5.05;;;13.50;99.90;;;;;;4866961;29;20116;-89
2023/03/13 11:36:14;;;;;;;19.35;4.70;;;13.10;99.90;;;;;;4872794;29;20235;-89
2023/03/13 11:39:42;;;;;;;24.20;4.65;;;13.00;99.90;;;;;;4883831;29;20049;-92
2023/03/13 11:41:55;;;;;;;21.40;5.60;;;12.90;99.90;;;;;;4868451;29;20116;-87
2023/03/13 11:44:49;;;;;;;20.77;4.68;;;12.60;99.90;;;;;;4861811;29;20049;-88
2023/03/13 11:47:44;;;;;;;24.23;5.43;;;12.50;99.90;;;;;;4853522;29;20108;-87
2023/03/13 11:50:35;;;;;;;23.05;4.47;;;12.50;99.90;;;;;;4874845;29;20446;-88
2023/03/13 11:53:29;;;;;;;17.33;4.93;;;13.90;99.90;;;;;;4862548;29;20474;-86
2023/03/13 11:56:06;;;;;;;29.48;5.68;;;12.50;99.90;;;;;;4870893;29;20542;-84
2023/03/13 11:59:01;;;;;;;22.42;4.85;;;12.50;99.90;;;;;;4861400;29;20855;-86
2023/03/13 12:01:34;;;;;;;20.42;5.20;;;12.50;99.90;;;;;;4860720;29;20053;-87
2023/03/13 12:04:33;;;;;;;26.17;5.82;;;12.70;99.90;;;;;;4864221;29;20080;-88
2023/03/13 12:07:04;;;;;;;27.73;5.25;;;13.30;99.90;;;;;;4825805;29;20060;-85
2023/03/13 12:10:04;;;;;;;18.38;4.07;;;14.10;99.90;;;;;;4856148;29;20081;-86
2023/03/13 12:12:39;;;;;;;24.67;5.03;;;14.80;99.90;;;;;;4826200;29;20774;-87
2023/03/13 12:15:35;;;;;;;16.48;3.92;;;15.30;99.90;;;;;;4860792;29;20053;-86
2023/03/13 12:18:23;;;;;;;16.85;4.18;;;15.50;99.90;;;;;;4855789;29;20614;-85
2023/03/13 12:21:31;;;;;;;19.60;4.25;;;15.60;99.90;;;;;;4870043;29;20051;-84
2023/03/13 12:24:17;;;;;;;22.63;4.57;;;15.90;99.90;;;;;;4873453;29;20070;-86
2023/03/13 12:26:46;;;;;;;;;;;16.00;99.90;;;;;;4870249;29;20045;-86
2023/03/13 12:29:35;;;;;;;24.83;5.40;;;16.00;99.90;;;;;;4870138;29;19931;-87
2023/03/13 12:32:13;;;;;;;17.85;4.57;;;16.10;99.90;;;;;;4870214;29;20045;-86
2023/03/13 12:35:10;;;;;;;21.75;4.43;;;16.20;99.90;;;;;;4866191;29;20049;-85
2023/03/13 12:37:39;;;;;;;;;;;16.20;99.90;;;;;;4878413;29;20451;-85
2023/03/13 12:40:27;;;;;;;21.95;4.28;;;16.40;99.90;;;;;;4866689;29;19928;-86
2023/03/13 12:42:58;;;;;;;22.25;4.82;;;15.90;99.90;;;;;;4856302;29;20045;-85
2023/03/13 12:45:25;;;;;;;20.85;4.93;;;16.50;99.90;;;;;;4849473;29;20056;-85
2023/03/13 12:48:02;;;;;;;22.42;4.80;;;16.60;99.90;;;;;;4850209;29;20049;-83
2023/03/13 12:50:44;;;;;;;20.67;4.75;;;16.60;99.90;;;;;;4857031;29;20152;-84
2023/03/13 12:53:35;;;;;;;19.08;4.32;;;15.40;99.90;;;;;;4854111;29;20520;-84
2023/03/13 12:56:25;;;;;;;18.65;4.50;;;16.70;99.90;;;;;;4854000;29;20049;-84
2023/03/13 12:58:57;;;;;;;22.38;4.65;;;16.60;99.90;;;;;;4872193;29;20048;-86
2023/03/13 13:01:35;;;;;;;18.10;4.22;;;16.20;99.90;;;;;;4841329;29;20045;-86
2023/03/13 13:04:32;;;;;;;24.00;5.32;;;16.50;99.90;;;;;;4878053;29;20205;-86
2023/03/13 13:07:01;;;;;;;18.83;5.15;;;15.30;99.90;;;;;;4837970;29;20064;-85
2023/03/13 13:09:34;;;;;;;21.55;5.35;;;16.50;99.90;;;;;;4848945;29;20100;-85
2023/03/13 13:12:24;;;;;;;23.75;5.68;;;16.40;99.90;;;;;;4857190;29;20056;-86
2023/03/13 13:14:49;;;;;;;24.42;4.90;;;16.40;99.90;;;;;;4855782;29;20091;-86
2023/03/13 13:17:23;;;;;;;21.92;5.22;;;15.10;99.90;;;;;;4870230;29;20509;-85